createdAt,value
2023-10-24T00:00:55.012Z,11.97
2023-10-24T00:03:28.568Z,11.95
2023-10-24T00:05:57.808Z,11.93
2023-10-24T00:08:25.732Z,11.92
2023-10-24T00:11:04.995Z,11.90
2023-10-24T00:13:33.120Z,11.89
2023-10-24T00:16:01.669Z,11.87
2023-10-24T00:18:29.941Z,11.85
2023-10-24T00:20:58.533Z,11.82
2023-10-24T00:23:26.577Z,11.79
2023-10-24T00:25:54.510Z,11.77
2023-10-24T00:28:22.653Z,11.75
2023-10-24T00:30:50.895Z,11.74
2023-10-24T00:33:19.269Z,11.73
2023-10-24T00:35:47.347Z,11.72
2023-10-24T00:38:15.391Z,11.70
2023-10-24T00:40:43.546Z,11.66
2023-10-24T00:43:12.228Z,11.65
2023-10-24T00:45:43.320Z,11.63
2023-10-24T00:48:11.706Z,11.62
2023-10-24T00:50:39.742Z,11.61
2023-10-24T00:53:07.651Z,11.61
2023-10-24T00:55:39.508Z,11.62
2023-10-24T00:58:10.717Z,11.63
2023-10-24T01:00:42.872Z,11.65
2023-10-24T01:03:11.646Z,11.67
2023-10-24T01:05:41.703Z,11.68
2023-10-24T01:08:09.721Z,11.69
2023-10-24T01:10:38.538Z,11.73
2023-10-24T01:13:09.288Z,11.77
2023-10-24T01:15:37.247Z,11.81
2023-10-24T01:18:06.408Z,11.82
2023-10-24T01:20:34.349Z,11.86
2023-10-24T01:23:02.378Z,11.90
2023-10-24T01:25:31.693Z,11.89
2023-10-24T01:28:01.300Z,11.89
2023-10-24T01:30:29.289Z,11.89
2023-10-24T01:32:57.210Z,11.93
2023-10-24T01:35:25.402Z,11.97
2023-10-24T01:37:53.382Z,12.00
2023-10-24T01:40:21.483Z,12.00
2023-10-24T01:42:49.862Z,12.04
2023-10-24T01:45:18.232Z,12.06
2023-10-24T01:47:47.632Z,12.03
2023-10-24T01:50:15.714Z,12.01
2023-10-24T01:52:45.145Z,12.01
2023-10-24T01:55:13.771Z,12.01
2023-10-24T01:57:41.715Z,11.96
2023-10-24T02:00:10.219Z,11.91
2023-10-24T02:02:41.042Z,11.90
2023-10-24T02:05:11.190Z,11.86
2023-10-24T02:07:39.875Z,11.82
2023-10-24T02:10:08.499Z,11.81
2023-10-24T02:12:37.360Z,11.78
2023-10-24T02:15:06.416Z,11.77
2023-10-24T02:17:34.422Z,11.75
2023-10-24T02:20:02.352Z,11.71
2023-10-24T02:22:30.940Z,11.68
2023-10-24T02:24:58.849Z,11.65
2023-10-24T02:27:27.057Z,11.63
2023-10-24T02:29:54.990Z,11.60
2023-10-24T02:32:22.908Z,11.57
2023-10-24T02:34:50.957Z,11.52
2023-10-24T02:37:19.248Z,11.50
2023-10-24T02:39:47.160Z,11.49
2023-10-24T02:42:15.389Z,11.50
2023-10-24T02:44:43.552Z,11.48
2023-10-24T02:47:12.357Z,11.46
2023-10-24T02:49:40.583Z,11.41
2023-10-24T02:52:08.589Z,11.37
2023-10-24T02:54:36.587Z,11.33
2023-10-24T02:57:04.744Z,11.29
2023-10-24T02:59:33.003Z,11.25
2023-10-24T03:02:01.665Z,11.22
2023-10-24T03:04:29.946Z,11.21
2023-10-24T03:06:58.043Z,11.21
2023-10-24T03:09:25.939Z,11.22
2023-10-24T03:11:54.039Z,11.20
2023-10-24T03:14:22.180Z,11.19
2023-10-24T03:16:50.451Z,11.19
2023-10-24T03:19:18.853Z,11.20
2023-10-24T03:21:46.999Z,11.21
2023-10-24T03:24:15.067Z,11.23
2023-10-24T03:26:42.963Z,11.22
2023-10-24T03:29:10.919Z,11.20
2023-10-24T03:31:38.800Z,11.17
2023-10-24T03:34:07.362Z,11.13
2023-10-24T03:36:35.829Z,11.11
2023-10-24T03:39:04.335Z,11.10
2023-10-24T03:41:32.557Z,11.03
2023-10-24T03:44:00.652Z,11.01
2023-10-24T03:46:28.789Z,10.96
2023-10-24T03:48:58.628Z,10.90
2023-10-24T03:51:26.555Z,10.90
2023-10-24T03:53:54.435Z,10.93
2023-10-24T03:56:22.514Z,10.95
2023-10-24T03:58:50.539Z,10.97
2023-10-24T04:01:18.861Z,10.96
2023-10-24T04:03:46.963Z,10.91
2023-10-24T04:06:15.773Z,10.85
2023-10-24T04:08:43.721Z,10.80
2023-10-24T04:11:16.309Z,10.76
2023-10-24T04:13:46.528Z,10.74
2023-10-24T04:16:15.145Z,10.74
2023-10-24T04:18:43.254Z,10.75
2023-10-24T04:21:15.050Z,10.76
2023-10-24T04:23:44.100Z,10.76
2023-10-24T04:26:13.219Z,10.76
2023-10-24T04:28:43.002Z,10.75
2023-10-24T04:31:11.618Z,10.73
2023-10-24T04:33:40.546Z,10.72
2023-10-24T04:36:15.790Z,10.72
2023-10-24T04:38:43.795Z,10.73
2023-10-24T04:41:11.864Z,10.74
2023-10-24T04:43:40.032Z,10.77
2023-10-24T04:46:07.991Z,10.81
2023-10-24T04:48:35.868Z,10.84
2023-10-24T04:51:11.868Z,10.87
2023-10-24T04:53:40.705Z,10.92
2023-10-24T04:56:08.876Z,10.92
2023-10-24T04:58:37.275Z,10.95
2023-10-24T05:01:05.301Z,11.01
2023-10-24T05:03:35.254Z,11.11
2023-10-24T05:06:04.823Z,11.19
2023-10-24T05:08:32.881Z,11.24
2023-10-24T05:11:00.800Z,11.24
2023-10-24T05:13:28.872Z,11.24
2023-10-24T05:15:57.047Z,11.27
2023-10-24T05:18:27.447Z,11.30
2023-10-24T05:20:58.891Z,11.31
2023-10-24T05:23:28.118Z,11.33
2023-10-24T05:25:56.454Z,11.41
2023-10-24T05:28:25.592Z,11.42
2023-10-24T05:30:54.234Z,11.38
2023-10-24T05:33:27.297Z,11.36
2023-10-24T05:35:55.438Z,11.35
2023-10-24T05:38:23.418Z,11.32
2023-10-24T05:40:51.438Z,11.31
2023-10-24T05:43:19.434Z,11.32
2023-10-24T05:45:48.564Z,11.31
2023-10-24T05:48:16.518Z,11.29
2023-10-24T05:50:45.717Z,11.27
2023-10-24T05:53:13.694Z,11.27
2023-10-24T05:55:41.630Z,11.26
2023-10-24T05:58:09.588Z,11.25
2023-10-24T06:00:37.608Z,11.22
2023-10-24T06:03:05.889Z,11.16
2023-10-24T06:05:34.126Z,11.10
2023-10-24T06:08:02.194Z,11.05
2023-10-24T06:10:30.206Z,11.02
2023-10-24T06:12:58.096Z,10.97
2023-10-24T06:15:25.961Z,10.94
2023-10-24T06:17:56.708Z,10.94
2023-10-24T06:20:24.940Z,10.96
2023-10-24T06:22:52.895Z,10.99
2023-10-24T06:25:21.009Z,11.00
2023-10-24T06:27:49.064Z,11.01
2023-10-24T06:30:17.188Z,11.03
2023-10-24T06:32:45.151Z,11.02
2023-10-24T06:35:16.388Z,11.03
2023-10-24T06:37:44.772Z,11.06
2023-10-24T06:40:14.638Z,11.11
2023-10-24T06:42:42.832Z,11.16
2023-10-24T06:45:12.255Z,11.22
2023-10-24T06:47:42.213Z,11.28
2023-10-24T06:50:10.357Z,11.33
2023-10-24T06:52:38.471Z,11.41
2023-10-24T06:55:06.957Z,11.42
2023-10-24T06:57:35.081Z,11.46
2023-10-24T07:00:03.157Z,11.51
2023-10-24T07:02:35.167Z,11.56
2023-10-24T07:05:03.528Z,11.62
2023-10-24T07:07:31.760Z,11.68
2023-10-24T07:09:59.793Z,11.71
2023-10-24T07:12:27.780Z,11.75
2023-10-24T07:14:57.446Z,11.80
2023-10-24T07:17:25.942Z,11.85
2023-10-24T07:19:54.021Z,11.89
2023-10-24T07:22:22.103Z,11.94
2023-10-24T07:24:50.242Z,12.00
2023-10-24T07:27:18.346Z,12.06
2023-10-24T07:29:46.573Z,12.11
2023-10-24T07:32:15.574Z,12.16
2023-10-24T07:34:43.789Z,12.18
2023-10-24T07:37:11.865Z,12.20
2023-10-24T07:39:40.219Z,12.20
2023-10-24T07:42:10.262Z,12.22
2023-10-24T07:44:38.458Z,12.26
2023-10-24T07:47:06.815Z,12.28
2023-10-24T07:49:36.622Z,12.31
2023-10-24T07:52:05.155Z,12.34
2023-10-24T07:54:33.323Z,12.36
2023-10-24T07:57:05.744Z,12.38
2023-10-24T07:59:35.331Z,12.40
2023-10-24T08:02:03.395Z,12.45
2023-10-24T08:04:31.528Z,12.49
2023-10-24T08:07:00.471Z,12.54
2023-10-24T08:09:28.436Z,12.57
2023-10-24T08:12:00.950Z,12.56
2023-10-24T08:14:29.608Z,12.54
2023-10-24T08:16:59.543Z,12.53
2023-10-24T08:19:27.805Z,12.52
2023-10-24T08:21:56.022Z,12.54
2023-10-24T08:24:24.515Z,12.56
2023-10-24T08:27:07.341Z,12.57
2023-10-24T08:29:38.457Z,12.62
2023-10-24T08:32:12.088Z,12.69
2023-10-24T08:34:43.429Z,12.78
2023-10-24T08:37:12.228Z,12.86
2023-10-24T08:39:40.402Z,12.95
2023-10-24T08:42:11.740Z,13.03
2023-10-24T08:45:00.377Z,13.07
2023-10-24T08:47:49.771Z,13.13
2023-10-24T08:50:40.216Z,13.18
2023-10-24T08:53:08.819Z,13.23
2023-10-24T08:55:37.154Z,13.28
2023-10-24T08:58:09.261Z,13.35
2023-10-24T09:00:37.540Z,13.41
2023-10-24T09:03:05.757Z,13.41
2023-10-24T09:05:34.781Z,13.39
2023-10-24T09:08:03.570Z,13.40
2023-10-24T09:10:32.638Z,13.48
2023-10-24T09:13:00.665Z,13.58
2023-10-24T09:15:29.711Z,13.64
2023-10-24T09:17:58.111Z,13.69
2023-10-24T09:20:31.165Z,13.71
2023-10-24T09:23:08.996Z,13.69
2023-10-24T09:25:38.923Z,13.64
2023-10-24T09:28:14.882Z,13.58
2023-10-24T09:30:43.140Z,13.55
2023-10-24T09:33:11.844Z,13.54
2023-10-24T09:35:40.853Z,13.53
2023-10-24T09:38:09.723Z,13.54
2023-10-24T09:40:39.420Z,13.56
2023-10-24T09:43:21.900Z,13.60
2023-10-24T09:45:53.907Z,13.64
2023-10-24T09:48:24.205Z,13.67
2023-10-24T09:50:54.203Z,13.74
2023-10-24T09:53:23.367Z,13.80
2023-10-24T09:55:51.777Z,13.89
2023-10-24T09:58:23.397Z,13.97
2023-10-24T10:00:51.757Z,14.07
2023-10-24T10:03:40.903Z,14.22
2023-10-24T10:06:54.108Z,14.48
2023-10-24T10:09:20.774Z,14.77
2023-10-24T10:11:50.897Z,14.99
2023-10-24T10:15:01.467Z,15.15
2023-10-24T10:17:42.022Z,15.28
2023-10-24T10:20:30.134Z,15.44
2023-10-24T10:23:12.790Z,15.58
2023-10-24T10:25:52.907Z,15.68
2023-10-24T10:29:01.409Z,15.78
2023-10-24T10:32:38.164Z,15.81
2023-10-24T10:34:39.164Z,15.85
2023-10-24T10:37:07.601Z,15.94
2023-10-24T10:39:35.651Z,16.02
2023-10-24T10:42:03.920Z,16.07
2023-10-24T10:44:42.174Z,16.16
2023-10-24T10:47:16.172Z,16.25
2023-10-24T10:49:51.298Z,16.37
2023-10-24T10:52:53.376Z,16.48
2023-10-24T10:55:47.848Z,16.62
2023-10-24T10:58:18.842Z,16.78
2023-10-24T11:00:55.883Z,16.88
2023-10-24T11:03:30.155Z,16.97
2023-10-24T11:06:08.578Z,17.06
2023-10-24T11:08:38.858Z,17.15
2023-10-24T11:11:11.363Z,17.20
2023-10-24T11:13:45.008Z,17.29
2023-10-24T11:18:47.229Z,17.54
2023-10-24T11:21:15.478Z,17.66
2023-10-24T11:23:44.508Z,17.79
2023-10-24T11:26:12.728Z,17.86
2023-10-24T11:28:41.469Z,17.94
2023-10-24T11:31:27.437Z,18.03
2023-10-24T11:33:55.838Z,18.14
2023-10-24T11:36:23.750Z,18.24
2023-10-24T11:38:52.626Z,18.30
2023-10-24T11:41:20.738Z,18.39
2023-10-24T11:43:49.726Z,18.50
2023-10-24T11:46:17.804Z,18.57
2023-10-24T11:48:45.801Z,18.68
2023-10-24T11:51:13.958Z,18.82
2023-10-24T11:53:42.135Z,18.97
2023-10-24T11:56:11.106Z,19.08
2023-10-24T11:58:43.842Z,19.22
2023-10-24T12:01:14.630Z,19.30
2023-10-24T12:03:48.380Z,19.38
2023-10-24T12:06:20.795Z,19.44
2023-10-24T12:08:50.020Z,19.45
2023-10-24T12:11:18.528Z,19.44
2023-10-24T12:13:47.776Z,19.46
2023-10-24T12:16:17.866Z,19.50
2023-10-24T12:18:46.669Z,19.54
2023-10-24T12:21:15.677Z,19.59
2023-10-24T12:23:43.723Z,19.62
2023-10-24T12:26:11.875Z,19.65
2023-10-24T12:28:44.209Z,19.72
2023-10-24T12:31:13.181Z,19.82
2023-10-24T12:33:41.291Z,19.92
2023-10-24T12:36:09.373Z,19.95
2023-10-24T12:38:38.719Z,19.91
2023-10-24T12:41:07.275Z,19.84
2023-10-24T12:43:35.447Z,19.80
2023-10-24T12:46:04.895Z,19.80
2023-10-24T12:48:40.123Z,19.79
2023-10-24T12:51:14.992Z,19.78
2023-10-24T12:53:42.928Z,19.75
2023-10-24T12:56:11.303Z,19.71
2023-10-24T12:58:40.281Z,19.67
2023-10-24T13:01:09.437Z,19.64
2023-10-24T13:03:37.425Z,19.62
2023-10-24T13:06:05.983Z,19.62
2023-10-24T13:08:33.944Z,19.60
2023-10-24T13:11:02.440Z,19.58
2023-10-24T13:13:30.409Z,19.57
2023-10-24T13:15:58.428Z,19.57
2023-10-24T13:18:29.170Z,19.55
2023-10-24T13:20:57.142Z,19.55
2023-10-24T13:23:24.990Z,19.58
2023-10-24T13:25:52.982Z,19.63
2023-10-24T13:28:22.915Z,19.72
2023-10-24T13:31:03.286Z,19.82
2023-10-24T13:34:04.394Z,19.93
2023-10-24T13:36:28.974Z,20.03
2023-10-24T13:38:57.372Z,20.08
2023-10-24T13:41:28.604Z,20.12
2023-10-24T13:43:59.141Z,20.16
2023-10-24T13:46:28.511Z,20.16
2023-10-24T13:48:58.870Z,20.20
2023-10-24T13:51:27.381Z,20.23
2023-10-24T13:53:55.784Z,20.23
2023-10-24T13:56:25.193Z,20.22
2023-10-24T13:58:53.379Z,20.18
2023-10-24T14:01:21.874Z,20.10
2023-10-24T14:03:50.642Z,20.00
2023-10-24T14:06:18.790Z,19.88
2023-10-24T14:08:48.416Z,19.78
2023-10-24T14:11:17.786Z,19.68
2023-10-24T14:13:46.761Z,19.59
2023-10-24T14:16:15.076Z,19.50
2023-10-24T14:18:48.154Z,19.43
2023-10-24T14:21:16.491Z,19.39
2023-10-24T14:23:45.186Z,19.33
2023-10-24T14:26:13.151Z,19.25
2023-10-24T14:28:41.871Z,19.19
2023-10-24T14:31:09.889Z,19.14
2023-10-24T14:33:38.669Z,19.08
2023-10-24T14:36:07.402Z,19.01
2023-10-24T14:38:35.274Z,18.98
2023-10-24T14:41:03.872Z,18.95
2023-10-24T14:43:32.026Z,18.90
2023-10-24T14:46:01.410Z,18.84
2023-10-24T14:48:29.587Z,18.78
2023-10-24T14:50:57.976Z,18.73
2023-10-24T14:53:26.734Z,18.70
2023-10-24T14:55:54.851Z,18.66
2023-10-24T14:58:24.481Z,18.62
2023-10-24T15:00:52.390Z,18.59
2023-10-24T15:03:21.262Z,18.55
2023-10-24T15:05:50.384Z,18.51
2023-10-24T15:08:18.385Z,18.46
2023-10-24T15:10:46.509Z,18.40
2023-10-24T15:13:14.572Z,18.36
2023-10-24T15:15:44.823Z,18.32
2023-10-24T15:18:13.620Z,18.27
2023-10-24T15:20:41.713Z,18.23
2023-10-24T15:23:10.671Z,18.18
2023-10-24T15:25:38.960Z,18.12
2023-10-24T15:28:07.008Z,18.08
2023-10-24T15:30:37.261Z,18.01
2023-10-24T15:33:05.731Z,17.96
2023-10-24T15:35:35.370Z,17.93
2023-10-24T15:38:04.508Z,17.89
2023-10-24T15:40:33.072Z,17.84
2023-10-24T15:43:01.747Z,17.78
2023-10-24T15:45:29.764Z,17.74
2023-10-24T15:47:59.347Z,17.72
2023-10-24T15:50:27.532Z,17.70
2023-10-24T15:52:56.230Z,17.67
2023-10-24T15:55:27.294Z,17.64
2023-10-24T15:57:58.869Z,17.57
2023-10-24T16:00:30.620Z,17.54
2023-10-24T16:02:59.218Z,17.53
2023-10-24T16:05:28.665Z,17.51
2023-10-24T16:07:56.978Z,17.49
2023-10-24T16:10:29.465Z,17.48
2023-10-24T16:13:00.346Z,17.47
2023-10-24T16:15:28.492Z,17.47
2023-10-24T16:17:56.497Z,17.47
2023-10-24T16:20:26.486Z,17.44
2023-10-24T16:22:55.133Z,17.42
2023-10-24T16:25:23.260Z,17.41
2023-10-24T16:27:51.838Z,17.39
2023-10-24T16:30:19.929Z,17.36
2023-10-24T16:32:47.947Z,17.33
2023-10-24T16:35:16.304Z,17.32
2023-10-24T16:37:44.366Z,17.30
2023-10-24T16:40:12.907Z,17.29
2023-10-24T16:42:43.094Z,17.26
2023-10-24T16:45:11.268Z,17.23
2023-10-24T16:47:39.335Z,17.20
2023-10-24T16:50:07.718Z,17.16
2023-10-24T16:52:36.160Z,17.10
2023-10-24T16:55:04.513Z,17.04
2023-10-24T16:57:33.012Z,16.99
2023-10-24T17:00:01.217Z,16.96
2023-10-24T17:02:49.848Z,16.93
2023-10-24T17:05:18.187Z,16.90
2023-10-24T17:07:48.625Z,16.88
2023-10-24T17:10:16.869Z,16.86
2023-10-24T17:12:44.978Z,16.84
2023-10-24T17:15:15.641Z,16.82
2023-10-24T17:17:46.524Z,16.79
2023-10-24T17:20:14.810Z,16.78
2023-10-24T17:22:48.782Z,16.76
2023-10-24T17:25:17.878Z,16.75
2023-10-24T17:27:46.326Z,16.75
2023-10-24T17:30:14.618Z,16.74
2023-10-24T17:32:42.640Z,16.71
2023-10-24T17:35:11.843Z,16.71
2023-10-24T17:37:40.397Z,16.74
2023-10-24T17:40:09.426Z,16.76
2023-10-24T17:42:38.389Z,16.75
2023-10-24T17:45:07.458Z,16.74
2023-10-24T17:47:35.737Z,16.74
2023-10-24T17:50:04.174Z,16.75
2023-10-24T17:52:32.315Z,16.72
2023-10-24T17:55:00.430Z,16.72
2023-10-24T17:57:31.749Z,16.70
2023-10-24T18:00:04.664Z,16.65
2023-10-24T18:02:33.191Z,16.60
2023-10-24T18:05:02.256Z,16.54
2023-10-24T18:07:33.289Z,16.50
2023-10-24T18:10:02.598Z,16.41
2023-10-24T18:12:30.819Z,16.35
2023-10-24T18:14:58.791Z,16.31
2023-10-24T18:17:27.268Z,16.24
2023-10-24T18:19:55.269Z,16.21
2023-10-24T18:22:23.846Z,16.14
2023-10-24T18:24:57.116Z,16.05
2023-10-24T18:27:26.837Z,15.95
2023-10-24T18:29:56.394Z,15.91
2023-10-24T18:32:24.810Z,15.90
2023-10-24T18:34:52.822Z,15.90
2023-10-24T18:37:25.581Z,15.88
2023-10-24T18:40:00.891Z,15.86
2023-10-24T18:42:56.076Z,15.85
2023-10-24T18:45:24.961Z,15.81
2023-10-24T18:47:54.074Z,15.75
2023-10-24T18:50:27.360Z,15.72
2023-10-24T18:52:59.868Z,15.68
2023-10-24T18:55:28.884Z,15.62
2023-10-24T18:58:00.273Z,15.57
2023-10-24T19:00:28.709Z,15.53
2023-10-24T19:02:57.906Z,15.51
2023-10-24T19:05:29.273Z,15.48
2023-10-24T19:07:58.221Z,15.44
2023-10-24T19:10:26.616Z,15.41
2023-10-24T19:12:54.937Z,15.36
2023-10-24T19:15:23.652Z,15.34
2023-10-24T19:17:51.932Z,15.34
2023-10-24T19:20:24.612Z,15.33
2023-10-24T19:22:53.102Z,15.31
2023-10-24T19:25:21.733Z,15.30
2023-10-24T19:27:50.185Z,15.31
2023-10-24T19:30:22.612Z,15.29
2023-10-24T19:32:51.391Z,15.26
2023-10-24T19:35:26.677Z,15.25
2023-10-24T19:37:58.320Z,15.24
2023-10-24T19:40:28.485Z,15.22
2023-10-24T19:42:56.789Z,15.21
2023-10-24T19:45:25.332Z,15.20
2023-10-24T19:48:00.395Z,15.21
2023-10-24T19:50:33.448Z,15.22
2023-10-24T19:53:01.897Z,15.22
2023-10-24T19:55:33.844Z,15.22
2023-10-24T19:58:02.877Z,15.19
2023-10-24T20:00:31.505Z,15.11
2023-10-24T20:03:00.147Z,15.03
2023-10-24T20:05:28.865Z,14.96
2023-10-24T20:07:58.787Z,14.87
2023-10-24T20:11:34.187Z,14.79
2023-10-24T20:13:18.388Z,14.72
2023-10-24T20:15:47.911Z,14.67
2023-10-24T20:18:16.961Z,14.59
2023-10-24T20:20:46.029Z,14.52
2023-10-24T20:23:14.220Z,14.46
2023-10-24T20:25:44.928Z,14.40
2023-10-24T20:28:13.197Z,14.36
2023-10-24T20:30:41.255Z,14.33
2023-10-24T20:33:09.511Z,14.28
2023-10-24T20:35:37.541Z,14.27
2023-10-24T20:38:05.548Z,14.28
2023-10-24T20:40:33.839Z,14.25
2023-10-24T20:43:02.045Z,14.19
2023-10-24T20:45:30.335Z,14.17
2023-10-24T20:47:58.398Z,14.14
2023-10-24T20:50:26.765Z,14.12
2023-10-24T20:52:54.620Z,14.08
2023-10-24T20:55:22.647Z,14.07
2023-10-24T20:57:50.566Z,14.08
2023-10-24T21:00:18.567Z,14.07
2023-10-24T21:02:48.570Z,14.09
2023-10-24T21:05:17.321Z,14.12
2023-10-24T21:07:51.654Z,14.14
2023-10-24T21:10:21.067Z,14.17
2023-10-24T21:12:51.889Z,14.25
2023-10-24T21:15:20.570Z,14.35
2023-10-24T21:17:48.897Z,14.38
2023-10-24T21:20:17.313Z,14.38
2023-10-24T21:22:45.501Z,14.37
2023-10-24T21:25:13.736Z,14.36
2023-10-24T21:27:41.994Z,14.34
2023-10-24T21:30:11.663Z,14.31
2023-10-24T21:32:40.652Z,14.28
2023-10-24T21:35:09.042Z,14.26
2023-10-24T21:37:37.193Z,14.22
2023-10-24T21:40:27.506Z,14.22
2023-10-24T21:42:56.434Z,14.22
2023-10-24T21:45:25.568Z,14.21
2023-10-24T21:47:55.359Z,14.19
2023-10-24T21:50:23.810Z,14.13
2023-10-24T21:52:52.171Z,14.08
2023-10-24T21:55:20.764Z,14.02
2023-10-24T21:57:49.111Z,13.96
2023-10-24T22:00:20.447Z,13.92
2023-10-24T22:02:48.701Z,13.90
2023-10-24T22:05:18.927Z,13.88
2023-10-24T22:07:48.460Z,13.85
2023-10-24T22:10:17.140Z,13.83
2023-10-24T22:12:45.380Z,13.81
2023-10-24T22:15:17.252Z,13.79
2023-10-24T22:17:46.372Z,13.80
2023-10-24T22:20:14.494Z,13.84
2023-10-24T22:22:42.717Z,13.88
2023-10-24T22:25:11.042Z,13.86
2023-10-24T22:27:42.897Z,13.82
2023-10-24T22:30:13.961Z,13.79
2023-10-24T22:32:42.135Z,13.76
2023-10-24T22:35:12.597Z,13.74
2023-10-24T22:37:40.499Z,13.73
2023-10-24T22:40:09.002Z,13.73
2023-10-24T22:42:37.072Z,13.72
2023-10-24T22:45:05.208Z,13.71
2023-10-24T22:47:33.786Z,13.72
2023-10-24T22:50:01.875Z,13.74
2023-10-24T22:52:30.566Z,13.76
2023-10-24T22:54:58.661Z,13.77
2023-10-24T22:57:26.668Z,13.77
2023-10-24T22:59:55.284Z,13.77
2023-10-24T23:02:23.241Z,13.77
2023-10-24T23:04:51.208Z,13.76
2023-10-24T23:07:19.841Z,13.80
2023-10-24T23:09:49.925Z,13.82
2023-10-24T23:12:19.457Z,13.80
2023-10-24T23:14:47.512Z,13.78
2023-10-24T23:17:15.391Z,13.81
2023-10-24T23:19:43.624Z,13.85
2023-10-24T23:22:11.902Z,13.86
2023-10-24T23:24:40.000Z,13.91
2023-10-24T23:27:08.056Z,13.95
2023-10-24T23:29:36.183Z,13.97
2023-10-24T23:32:04.772Z,13.99
2023-10-24T23:34:32.784Z,14.01
2023-10-24T23:37:00.747Z,14.01
2023-10-24T23:39:29.169Z,14.03
2023-10-24T23:41:57.652Z,14.08
2023-10-24T23:44:26.773Z,14.19
2023-10-24T23:46:55.268Z,14.31
2023-10-24T23:49:23.524Z,14.46
2023-10-24T23:51:51.532Z,14.57
2023-10-24T23:54:19.652Z,14.67
2023-10-24T23:56:47.662Z,14.75
2023-10-24T23:59:15.671Z,14.86
